sensor_id;sensor_type;location;lat;lon;timestamp;P1;durP1;ratioP1;P2;durP2;ratioP2
14021;SDS011;7086;48.116;11.580;2022-08-19T00:01:46;2.20;;;2.10;;
14021;SDS011;7086;48.116;11.580;2022-08-19T00:04:17;2.20;;;2.10;;
14021;SDS011;7086;48.116;11.580;2022-08-19T00:06:48;2.35;;;2.25;;
14021;SDS011;7086;48.116;11.580;2022-08-19T00:09:18;2.30;;;2.10;;
14021;SDS011;7086;48.116;11.580;2022-08-19T00:11:47;2.55;;;2.45;;
14021;SDS011;7086;48.116;11.580;2022-08-19T00:14:16;2.88;;;2.67;;
14021;SDS011;7086;48.116;11.580;2022-08-19T00:16:46;2.40;;;2.30;;
14021;SDS011;7086;48.116;11.580;2022-08-19T00:19:16;2.40;;;2.30;;
14021;SDS011;7086;48.116;11.580;2022-08-19T00:21:44;2.33;;;2.13;;
14021;SDS011;7086;48.116;11.580;2022-08-19T00:24:13;2.03;;;1.92;;
14021;SDS011;7086;48.116;11.580;2022-08-19T00:26:43;2.53;;;2.42;;
14021;SDS011;7086;48.116;11.580;2022-08-19T00:29:12;3.00;;;2.80;;
14021;SDS011;7086;48.116;11.580;2022-08-19T00:31:43;2.55;;;2.45;;
14021;SDS011;7086;48.116;11.580;2022-08-19T00:34:13;2.40;;;2.30;;
14021;SDS011;7086;48.116;11.580;2022-08-19T00:36:41;2.35;;;2.25;;
14021;SDS011;7086;48.116;11.580;2022-08-19T00:39:10;2.70;;;2.60;;
14021;SDS011;7086;48.116;11.580;2022-08-19T00:41:38;2.83;;;2.63;;
14021;SDS011;7086;48.116;11.580;2022-08-19T00:44:09;3.40;;;3.10;;
14021;SDS011;7086;48.116;11.580;2022-08-19T00:46:41;3.08;;;2.80;;
14021;SDS011;7086;48.116;11.580;2022-08-19T00:49:12;3.35;;;3.15;;
14021;SDS011;7086;48.116;11.580;2022-08-19T00:51:46;2.78;;;2.58;;
14021;SDS011;7086;48.116;11.580;2022-08-19T00:54:19;3.53;;;3.22;;
14021;SDS011;7086;48.116;11.580;2022-08-19T00:56:51;2.67;;;2.58;;
14021;SDS011;7086;48.116;11.580;2022-08-19T00:59:21;3.45;;;3.25;;
14021;SDS011;7086;48.116;11.580;2022-08-19T01:01:50;3.33;;;3.13;;
14021;SDS011;7086;48.116;11.580;2022-08-19T01:04:18;3.42;;;3.22;;
14021;SDS011;7086;48.116;11.580;2022-08-19T01:06:46;2.85;;;2.75;;
14021;SDS011;7086;48.116;11.580;2022-08-19T01:09:14;3.28;;;3.08;;
14021;SDS011;7086;48.116;11.580;2022-08-19T01:11:41;3.45;;;3.28;;
14021;SDS011;7086;48.116;11.580;2022-08-19T01:14:11;3.15;;;2.95;;
14021;SDS011;7086;48.116;11.580;2022-08-19T01:16:43;3.50;;;3.30;;
14021;SDS011;7086;48.116;11.580;2022-08-19T01:19:15;3.70;;;3.50;;
14021;SDS011;7086;48.116;11.580;2022-08-19T01:21:52;3.28;;;3.08;;
14021;SDS011;7086;48.116;11.580;2022-08-19T01:24:31;3.95;;;3.65;;
14021;SDS011;7086;48.116;11.580;2022-08-19T01:26:59;4.20;;;3.95;;
14021;SDS011;7086;48.116;11.580;2022-08-19T01:29:31;3.95;;;3.65;;
14021;SDS011;7086;48.116;11.580;2022-08-19T01:32:00;3.70;;;3.50;;
14021;SDS011;7086;48.116;11.580;2022-08-19T01:34:29;3.72;;;3.50;;
14021;SDS011;7086;48.116;11.580;2022-08-19T01:36:59;3.95;;;3.65;;
14021;SDS011;7086;48.116;11.580;2022-08-19T01:39:35;4.15;;;3.95;;
14021;SDS011;7086;48.116;11.580;2022-08-19T01:42:05;4.18;;;3.90;;
14021;SDS011;7086;48.116;11.580;2022-08-19T01:44:36;3.78;;;3.58;;
14021;SDS011;7086;48.116;11.580;2022-08-19T01:47:06;3.22;;;3.10;;
14021;SDS011;7086;48.116;11.580;2022-08-19T01:49:35;4.13;;;3.83;;
14021;SDS011;7086;48.116;11.580;2022-08-19T01:52:04;3.05;;;2.95;;
14021;SDS011;7086;48.116;11.580;2022-08-19T01:54:32;3.38;;;3.17;;
14021;SDS011;7086;48.116;11.580;2022-08-19T01:57:03;3.70;;;3.47;;
14021;SDS011;7086;48.116;11.580;2022-08-19T01:59:35;3.05;;;2.85;;
14021;SDS011;7086;48.116;11.580;2022-08-19T02:02:03;3.30;;;3.10;;
14021;SDS011;7086;48.116;11.580;2022-08-19T02:04:32;3.60;;;3.30;;
14021;SDS011;7086;48.116;11.580;2022-08-19T02:07:00;3.80;;;3.60;;
14021;SDS011;7086;48.116;11.580;2022-08-19T02:09:27;3.90;;;3.70;;
14021;SDS011;7086;48.116;11.580;2022-08-19T02:11:58;3.42;;;3.22;;
14021;SDS011;7086;48.116;11.580;2022-08-19T02:14:25;3.65;;;3.42;;
14021;SDS011;7086;48.116;11.580;2022-08-19T02:16:53;3.55;;;3.35;;
14021;SDS011;7086;48.116;11.580;2022-08-19T02:19:20;3.15;;;2.95;;
14021;SDS011;7086;48.116;11.580;2022-08-19T02:21:48;3.97;;;3.70;;
14021;SDS011;7086;48.116;11.580;2022-08-19T02:24:15;3.05;;;2.95;;
14021;SDS011;7086;48.116;11.580;2022-08-19T02:26:43;3.85;;;3.35;;
14021;SDS011;7086;48.116;11.580;2022-08-19T02:29:12;3.25;;;3.05;;
14021;SDS011;7086;48.116;11.580;2022-08-19T02:31:40;4.07;;;3.78;;
14021;SDS011;7086;48.116;11.580;2022-08-19T02:34:08;3.60;;;3.30;;
14021;SDS011;7086;48.116;11.580;2022-08-19T02:36:35;3.78;;;3.58;;
14021;SDS011;7086;48.116;11.580;2022-08-19T02:39:04;3.25;;;3.05;;
14021;SDS011;7086;48.116;11.580;2022-08-19T02:41:31;3.20;;;3.10;;
14021;SDS011;7086;48.116;11.580;2022-08-19T02:44:00;3.00;;;2.80;;
14021;SDS011;7086;48.116;11.580;2022-08-19T02:46:31;2.78;;;2.67;;
14021;SDS011;7086;48.116;11.580;2022-08-19T02:49:01;2.85;;;2.70;;
14021;SDS011;7086;48.116;11.580;2022-08-19T02:51:33;2.85;;;2.75;;
14021;SDS011;7086;48.116;11.580;2022-08-19T02:54:05;3.63;;;3.28;;
14021;SDS011;7086;48.116;11.580;2022-08-19T02:56:34;3.47;;;3.17;;
14021;SDS011;7086;48.116;11.580;2022-08-19T02:59:03;2.60;;;2.50;;
14021;SDS011;7086;48.116;11.580;2022-08-19T03:01:38;3.33;;;3.13;;
14021;SDS011;7086;48.116;11.580;2022-08-19T03:04:08;2.63;;;2.53;;
14021;SDS011;7086;48.116;11.580;2022-08-19T03:06:43;3.22;;;3.03;;
14021;SDS011;7086;48.116;11.580;2022-08-19T03:09:13;3.35;;;3.15;;
14021;SDS011;7086;48.116;11.580;2022-08-19T03:11:41;2.97;;;2.78;;
14021;SDS011;7086;48.116;11.580;2022-08-19T03:14:09;5.75;;;3.08;;
14021;SDS011;7086;48.116;11.580;2022-08-19T03:16:41;3.63;;;3.22;;
14021;SDS011;7086;48.116;11.580;2022-08-19T03:19:11;3.28;;;3.08;;
14021;SDS011;7086;48.116;11.580;2022-08-19T03:21:43;2.90;;;2.80;;
14021;SDS011;7086;48.116;11.580;2022-08-19T03:24:12;3.10;;;2.90;;
14021;SDS011;7086;48.116;11.580;2022-08-19T03:26:43;3.20;;;3.03;;
14021;SDS011;7086;48.116;11.580;2022-08-19T03:29:14;2.75;;;2.65;;
14021;SDS011;7086;48.116;11.580;2022-08-19T03:31:44;2.67;;;2.58;;
14021;SDS011;7086;48.116;11.580;2022-08-19T03:34:13;2.92;;;2.83;;
14021;SDS011;7086;48.116;11.580;2022-08-19T03:36:44;3.15;;;2.95;;
14021;SDS011;7086;48.116;11.580;2022-08-19T03:39:14;2.90;;;2.80;;
14021;SDS011;7086;48.116;11.580;2022-08-19T03:41:43;2.97;;;2.78;;
14021;SDS011;7086;48.116;11.580;2022-08-19T03:44:14;3.05;;;2.85;;
14021;SDS011;7086;48.116;11.580;2022-08-19T03:46:49;2.90;;;2.70;;
14021;SDS011;7086;48.116;11.580;2022-08-19T03:49:22;2.97;;;2.78;;
14021;SDS011;7086;48.116;11.580;2022-08-19T03:52:03;3.72;;;3.10;;
14021;SDS011;7086;48.116;11.580;2022-08-19T03:54:45;2.85;;;2.75;;
14021;SDS011;7086;48.116;11.580;2022-08-19T03:57:13;3.10;;;3.00;;
14021;SDS011;7086;48.116;11.580;2022-08-19T03:59:40;2.90;;;2.70;;
14021;SDS011;7086;48.116;11.580;2022-08-19T04:02:11;3.13;;;2.92;;
14021;SDS011;7086;48.116;11.580;2022-08-19T04:04:40;3.40;;;3.10;;
14021;SDS011;7086;48.116;11.580;2022-08-19T04:07:10;2.75;;;2.58;;
14021;SDS011;7086;48.116;11.580;2022-08-19T04:09:42;3.42;;;3.05;;
14021;SDS011;7086;48.116;11.580;2022-08-19T04:12:10;2.88;;;2.72;;
14021;SDS011;7086;48.116;11.580;2022-08-19T04:14:38;2.70;;;2.50;;
14021;SDS011;7086;48.116;11.580;2022-08-19T04:17:06;2.80;;;2.70;;
14021;SDS011;7086;48.116;11.580;2022-08-19T04:19:35;2.78;;;2.53;;
14021;SDS011;7086;48.116;11.580;2022-08-19T04:22:03;3.13;;;2.92;;
14021;SDS011;7086;48.116;11.580;2022-08-19T04:24:35;3.67;;;3.47;;
14021;SDS011;7086;48.116;11.580;2022-08-19T04:27:03;3.60;;;3.40;;
14021;SDS011;7086;48.116;11.580;2022-08-19T04:29:32;3.58;;;3.33;;
14021;SDS011;7086;48.116;11.580;2022-08-19T04:32:04;3.38;;;3.17;;
14021;SDS011;7086;48.116;11.580;2022-08-19T04:34:32;3.25;;;2.90;;
14021;SDS011;7086;48.116;11.580;2022-08-19T04:37:05;3.50;;;3.30;;
14021;SDS011;7086;48.116;11.580;2022-08-19T04:39:38;3.83;;;3.50;;
14021;SDS011;7086;48.116;11.580;2022-08-19T04:42:24;4.40;;;4.00;;
14021;SDS011;7086;48.116;11.580;2022-08-19T04:45:08;3.83;;;3.63;;
14021;SDS011;7086;48.116;11.580;2022-08-19T04:47:39;3.88;;;3.40;;
14021;SDS011;7086;48.116;11.580;2022-08-19T04:50:11;4.05;;;3.85;;
14021;SDS011;7086;48.116;11.580;2022-08-19T04:52:39;3.90;;;3.70;;
14021;SDS011;7086;48.116;11.580;2022-08-19T04:55:08;2.92;;;2.78;;
14021;SDS011;7086;48.116;11.580;2022-08-19T04:57:37;3.58;;;3.38;;
14021;SDS011;7086;48.116;11.580;2022-08-19T05:00:06;3.67;;;3.47;;
14021;SDS011;7086;48.116;11.580;2022-08-19T05:02:35;3.53;;;3.30;;
14021;SDS011;7086;48.116;11.580;2022-08-19T05:05:04;3.08;;;2.90;;
14021;SDS011;7086;48.116;11.580;2022-08-19T05:07:35;3.53;;;3.33;;
14021;SDS011;7086;48.116;11.580;2022-08-19T05:10:04;3.53;;;3.33;;
14021;SDS011;7086;48.116;11.580;2022-08-19T05:12:34;3.85;;;3.53;;
14021;SDS011;7086;48.116;11.580;2022-08-19T05:15:02;4.05;;;3.60;;
14021;SDS011;7086;48.116;11.580;2022-08-19T05:17:32;4.10;;;3.80;;
14021;SDS011;7086;48.116;11.580;2022-08-19T05:19:59;3.83;;;3.58;;
14021;SDS011;7086;48.116;11.580;2022-08-19T05:22:46;4.10;;;3.80;;
14021;SDS011;7086;48.116;11.580;2022-08-19T05:25:15;4.07;;;3.70;;
14021;SDS011;7086;48.116;11.580;2022-08-19T05:27:48;3.28;;;3.08;;
14021;SDS011;7086;48.116;11.580;2022-08-19T05:30:19;3.45;;;3.25;;
14021;SDS011;7086;48.116;11.580;2022-08-19T05:33:01;3.40;;;3.20;;
14021;SDS011;7086;48.116;11.580;2022-08-19T05:44:28;3.38;;;3.17;;
14021;SDS011;7086;48.116;11.580;2022-08-19T05:47:02;3.55;;;3.35;;
14021;SDS011;7086;48.116;11.580;2022-08-19T05:49:45;3.70;;;3.50;;
14021;SDS011;7086;48.116;11.580;2022-08-19T05:52:30;3.47;;;3.28;;
14021;SDS011;7086;48.116;11.580;2022-08-19T05:55:14;3.97;;;3.63;;
14021;SDS011;7086;48.116;11.580;2022-08-19T05:57:42;4.22;;;3.92;;
14021;SDS011;7086;48.116;11.580;2022-08-19T06:00:26;4.25;;;3.95;;
14021;SDS011;7086;48.116;11.580;2022-08-19T06:02:56;4.50;;;4.20;;
14021;SDS011;7086;48.116;11.580;2022-08-19T06:05:28;5.20;;;4.78;;
14021;SDS011;7086;48.116;11.580;2022-08-19T06:08:10;4.85;;;4.50;;
14021;SDS011;7086;48.116;11.580;2022-08-19T06:10:43;4.47;;;4.18;;
14021;SDS011;7086;48.116;11.580;2022-08-19T06:13:13;16.40;;;14.73;;
14021;SDS011;7086;48.116;11.580;2022-08-19T06:22:22;5.38;;;4.97;;
14021;SDS011;7086;48.116;11.580;2022-08-19T06:24:50;7.35;;;6.75;;
14021;SDS011;7086;48.116;11.580;2022-08-19T06:27:32;6.35;;;5.80;;
14021;SDS011;7086;48.116;11.580;2022-08-19T06:30:06;6.05;;;5.55;;
14021;SDS011;7086;48.116;11.580;2022-08-19T06:32:55;6.53;;;6.03;;
14021;SDS011;7086;48.116;11.580;2022-08-19T06:35:58;6.63;;;6.10;;
14021;SDS011;7086;48.116;11.580;2022-08-19T06:38:29;6.45;;;5.85;;
14021;SDS011;7086;48.116;11.580;2022-08-19T06:41:11;24.17;;;21.77;;
14021;SDS011;7086;48.116;11.580;2022-08-19T06:43:39;15.38;;;13.88;;
14021;SDS011;7086;48.116;11.580;2022-08-19T06:46:12;10.60;;;9.52;;
14021;SDS011;7086;48.116;11.580;2022-08-19T06:48:42;12.77;;;11.63;;
14021;SDS011;7086;48.116;11.580;2022-08-19T06:51:11;8.23;;;7.47;;
14021;SDS011;7086;48.116;11.580;2022-08-19T06:53:47;7.43;;;6.82;;
14021;SDS011;7086;48.116;11.580;2022-08-19T06:56:27;6.22;;;5.80;;
14021;SDS011;7086;48.116;11.580;2022-08-19T06:59:00;6.15;;;5.65;;
14021;SDS011;7086;48.116;11.580;2022-08-19T07:01:45;6.65;;;6.13;;
14021;SDS011;7086;48.116;11.580;2022-08-19T07:04:16;7.22;;;6.57;;
14021;SDS011;7086;48.116;11.580;2022-08-19T07:19:41;6.90;;;6.30;;
14021;SDS011;7086;48.116;11.580;2022-08-19T08:16:09;14.45;;;12.95;;
14021;SDS011;7086;48.116;11.580;2022-08-19T08:26:25;10.00;;;9.25;;
14021;SDS011;7086;48.116;11.580;2022-08-19T08:29:27;10.70;;;9.73;;
14021;SDS011;7086;48.116;11.580;2022-08-19T08:51:20;10.80;;;9.80;;
14021;SDS011;7086;48.116;11.580;2022-08-19T08:54:10;10.15;;;9.25;;
14021;SDS011;7086;48.116;11.580;2022-08-19T08:56:47;11.07;;;10.07;;
14021;SDS011;7086;48.116;11.580;2022-08-19T08:59:35;9.10;;;8.40;;
14021;SDS011;7086;48.116;11.580;2022-08-19T09:02:07;11.93;;;10.88;;
14021;SDS011;7086;48.116;11.580;2022-08-19T09:25:09;9.45;;;8.55;;
14021;SDS011;7086;48.116;11.580;2022-08-19T09:27:57;9.57;;;8.57;;
14021;SDS011;7086;48.116;11.580;2022-08-19T09:30:40;8.80;;;7.95;;
14021;SDS011;7086;48.116;11.580;2022-08-19T09:33:21;8.52;;;7.80;;
14021;SDS011;7086;48.116;11.580;2022-08-19T09:52:25;8.63;;;7.97;;
14021;SDS011;7086;48.116;11.580;2022-08-19T09:57:43;9.52;;;8.57;;
14021;SDS011;7086;48.116;11.580;2022-08-19T10:03:27;11.65;;;10.45;;
14021;SDS011;7086;48.116;11.580;2022-08-19T11:14:24;5.65;;;5.28;;
14021;SDS011;7086;48.116;11.580;2022-08-19T11:17:06;5.40;;;4.93;;
14021;SDS011;7086;48.116;11.580;2022-08-19T11:19:36;4.90;;;4.60;;
14021;SDS011;7086;48.116;11.580;2022-08-19T11:22:13;4.80;;;4.50;;
14021;SDS011;7086;48.116;11.580;2022-08-19T11:48:23;5.22;;;4.82;;
14021;SDS011;7086;48.116;11.580;2022-08-19T11:51:06;4.63;;;4.22;;
14021;SDS011;7086;48.116;11.580;2022-08-19T11:53:50;3.30;;;2.70;;
14021;SDS011;7086;48.116;11.580;2022-08-19T11:56:39;2.60;;;2.50;;
14021;SDS011;7086;48.116;11.580;2022-08-19T11:59:14;3.83;;;3.25;;
14021;SDS011;7086;48.116;11.580;2022-08-19T12:01:56;27.98;;;25.13;;
14021;SDS011;7086;48.116;11.580;2022-08-19T12:04:27;12.38;;;11.32;;
14021;SDS011;7086;48.116;11.580;2022-08-19T13:46:11;0.80;;;0.80;;
14021;SDS011;7086;48.116;11.580;2022-08-19T15:22:48;1.63;;;1.52;;
14021;SDS011;7086;48.116;11.580;2022-08-19T15:25:20;1.75;;;1.65;;
14021;SDS011;7086;48.116;11.580;2022-08-19T15:28:23;1.52;;;1.42;;
14021;SDS011;7086;48.116;11.580;2022-08-19T15:33:30;1.33;;;1.33;;
14021;SDS011;7086;48.116;11.580;2022-08-19T15:36:01;1.63;;;1.52;;
14021;SDS011;7086;48.116;11.580;2022-08-19T15:38:54;1.60;;;1.45;;
14021;SDS011;7086;48.116;11.580;2022-08-19T15:41:25;2.70;;;2.47;;
14021;SDS011;7086;48.116;11.580;2022-08-19T15:44:16;2.88;;;2.78;;
14021;SDS011;7086;48.116;11.580;2022-08-19T15:47:01;2.63;;;2.47;;
14021;SDS011;7086;48.116;11.580;2022-08-19T15:49:31;2.40;;;2.30;;
14021;SDS011;7086;48.116;11.580;2022-08-19T15:52:00;2.35;;;2.17;;
14021;SDS011;7086;48.116;11.580;2022-08-19T15:54:36;2.33;;;2.22;;
14021;SDS011;7086;48.116;11.580;2022-08-19T15:57:05;2.42;;;2.33;;
14021;SDS011;7086;48.116;11.580;2022-08-19T15:59:50;3.00;;;2.90;;
14021;SDS011;7086;48.116;11.580;2022-08-19T16:02:38;2.58;;;2.47;;
14021;SDS011;7086;48.116;11.580;2022-08-19T16:05:23;3.00;;;2.85;;
14021;SDS011;7086;48.116;11.580;2022-08-19T16:08:10;3.17;;;3.05;;
14021;SDS011;7086;48.116;11.580;2022-08-19T16:10:43;3.65;;;3.45;;
14021;SDS011;7086;48.116;11.580;2022-08-19T16:16:07;3.70;;;3.42;;
14021;SDS011;7086;48.116;11.580;2022-08-19T16:18:52;3.08;;;2.97;;
14021;SDS011;7086;48.116;11.580;2022-08-19T16:21:46;3.42;;;3.22;;
14021;SDS011;7086;48.116;11.580;2022-08-19T16:24:21;2.85;;;2.75;;
14021;SDS011;7086;48.116;11.580;2022-08-19T16:27:07;2.90;;;2.80;;
14021;SDS011;7086;48.116;11.580;2022-08-19T16:30:18;2.13;;;2.03;;
14021;SDS011;7086;48.116;11.580;2022-08-19T16:32:59;2.10;;;2.00;;
14021;SDS011;7086;48.116;11.580;2022-08-19T16:35:27;3.50;;;2.33;;
14021;SDS011;7086;48.116;11.580;2022-08-19T16:37:57;1.80;;;1.80;;
14021;SDS011;7086;48.116;11.580;2022-08-19T16:40:26;1.92;;;1.52;;
14021;SDS011;7086;48.116;11.580;2022-08-19T16:42:58;1.20;;;1.20;;
14021;SDS011;7086;48.116;11.580;2022-08-19T16:45:27;1.35;;;1.35;;
14021;SDS011;7086;48.116;11.580;2022-08-19T16:47:55;1.48;;;1.48;;
14021;SDS011;7086;48.116;11.580;2022-08-19T16:50:23;1.30;;;1.30;;
14021;SDS011;7086;48.116;11.580;2022-08-19T16:52:51;1.40;;;1.38;;
14021;SDS011;7086;48.116;11.580;2022-08-19T16:55:22;1.23;;;1.23;;
14021;SDS011;7086;48.116;11.580;2022-08-19T16:57:54;1.70;;;1.60;;
14021;SDS011;7086;48.116;11.580;2022-08-19T17:00:29;1.33;;;1.23;;
14021;SDS011;7086;48.116;11.580;2022-08-19T17:03:02;1.33;;;1.33;;
14021;SDS011;7086;48.116;11.580;2022-08-19T17:05:41;1.80;;;1.70;;
14021;SDS011;7086;48.116;11.580;2022-08-19T17:08:12;2.13;;;2.03;;
14021;SDS011;7086;48.116;11.580;2022-08-19T17:10:41;2.13;;;2.03;;
14021;SDS011;7086;48.116;11.580;2022-08-19T17:13:12;2.08;;;1.98;;
14021;SDS011;7086;48.116;11.580;2022-08-19T17:15:41;1.98;;;1.88;;
14021;SDS011;7086;48.116;11.580;2022-08-19T17:18:10;2.30;;;2.20;;
14021;SDS011;7086;48.116;11.580;2022-08-19T17:20:39;2.08;;;2.03;;
14021;SDS011;7086;48.116;11.580;2022-08-19T17:23:11;1.90;;;1.80;;
14021;SDS011;7086;48.116;11.580;2022-08-19T17:25:39;2.00;;;1.90;;
14021;SDS011;7086;48.116;11.580;2022-08-19T17:28:09;1.83;;;1.83;;
14021;SDS011;7086;48.116;11.580;2022-08-19T17:30:44;1.73;;;1.70;;
14021;SDS011;7086;48.116;11.580;2022-08-19T17:33:14;1.77;;;1.75;;
14021;SDS011;7086;48.116;11.580;2022-08-19T17:35:43;1.98;;;1.88;;
14021;SDS011;7086;48.116;11.580;2022-08-19T17:38:24;2.05;;;1.95;;
14021;SDS011;7086;48.116;11.580;2022-08-19T17:40:54;2.22;;;2.13;;
14021;SDS011;7086;48.116;11.580;2022-08-19T17:43:37;1.85;;;1.75;;
14021;SDS011;7086;48.116;11.580;2022-08-19T17:46:09;1.67;;;1.65;;
14021;SDS011;7086;48.116;11.580;2022-08-19T17:48:40;2.50;;;2.30;;
14021;SDS011;7086;48.116;11.580;2022-08-19T17:51:13;1.70;;;1.70;;
14021;SDS011;7086;48.116;11.580;2022-08-19T17:53:43;1.83;;;1.73;;
14021;SDS011;7086;48.116;11.580;2022-08-19T17:56:12;1.55;;;1.52;;
14021;SDS011;7086;48.116;11.580;2022-08-19T17:58:55;1.75;;;1.60;;
14021;SDS011;7086;48.116;11.580;2022-08-19T18:01:23;1.75;;;1.65;;
14021;SDS011;7086;48.116;11.580;2022-08-19T18:04:07;1.50;;;1.40;;
14021;SDS011;7086;48.116;11.580;2022-08-19T18:06:36;1.42;;;1.42;;
14021;SDS011;7086;48.116;11.580;2022-08-19T18:09:06;1.13;;;1.13;;
14021;SDS011;7086;48.116;11.580;2022-08-19T18:11:44;1.60;;;1.60;;
14021;SDS011;7086;48.116;11.580;2022-08-19T18:17:18;1.65;;;1.65;;
14021;SDS011;7086;48.116;11.580;2022-08-19T18:19:47;2.00;;;1.90;;
14021;SDS011;7086;48.116;11.580;2022-08-19T18:22:20;2.00;;;1.90;;
14021;SDS011;7086;48.116;11.580;2022-08-19T18:25:09;2.08;;;1.98;;
14021;SDS011;7086;48.116;11.580;2022-08-19T18:27:55;2.75;;;2.65;;
14021;SDS011;7086;48.116;11.580;2022-08-19T18:30:48;2.50;;;2.40;;
14021;SDS011;7086;48.116;11.580;2022-08-19T18:33:30;2.40;;;2.30;;
14021;SDS011;7086;48.116;11.580;2022-08-19T18:36:12;2.55;;;2.45;;
14021;SDS011;7086;48.116;11.580;2022-08-19T18:38:54;2.85;;;2.65;;
14021;SDS011;7086;48.116;11.580;2022-08-19T18:41:40;2.55;;;2.45;;
14021;SDS011;7086;48.116;11.580;2022-08-19T18:44:35;3.35;;;3.03;;
14021;SDS011;7086;48.116;11.580;2022-08-19T18:51:00;3.28;;;3.13;;
14021;SDS011;7086;48.116;11.580;2022-08-19T18:53:47;2.63;;;2.53;;
14021;SDS011;7086;48.116;11.580;2022-08-19T18:56:40;3.00;;;2.90;;
14021;SDS011;7086;48.116;11.580;2022-08-19T18:59:25;2.90;;;2.80;;
14021;SDS011;7086;48.116;11.580;2022-08-19T19:02:08;5.10;;;4.53;;
14021;SDS011;7086;48.116;11.580;2022-08-19T19:11:47;3.97;;;3.78;;
14021;SDS011;7086;48.116;11.580;2022-08-19T19:14:38;3.80;;;3.60;;
14021;SDS011;7086;48.116;11.580;2022-08-19T19:25:05;4.75;;;4.45;;
14021;SDS011;7086;48.116;11.580;2022-08-19T20:13:06;5.18;;;4.78;;
14021;SDS011;7086;48.116;11.580;2022-08-19T20:15:49;4.65;;;4.22;;
14021;SDS011;7086;48.116;11.580;2022-08-19T20:18:33;4.53;;;4.07;;
14021;SDS011;7086;48.116;11.580;2022-08-19T20:21:15;4.25;;;3.97;;
14021;SDS011;7086;48.116;11.580;2022-08-19T20:23:48;4.50;;;4.10;;
14021;SDS011;7086;48.116;11.580;2022-08-19T20:29:53;4.05;;;3.75;;
14021;SDS011;7086;48.116;11.580;2022-08-19T20:32:22;4.32;;;3.97;;
14021;SDS011;7086;48.116;11.580;2022-08-19T20:35:09;4.43;;;4.13;;
14021;SDS011;7086;48.116;11.580;2022-08-19T20:38:14;3.60;;;3.40;;
14021;SDS011;7086;48.116;11.580;2022-08-19T20:40:45;4.20;;;3.80;;
14021;SDS011;7086;48.116;11.580;2022-08-19T20:56:38;4.25;;;4.05;;
14021;SDS011;7086;48.116;11.580;2022-08-19T20:59:21;3.83;;;3.53;;
14021;SDS011;7086;48.116;11.580;2022-08-19T21:02:03;3.20;;;3.10;;
14021;SDS011;7086;48.116;11.580;2022-08-19T21:04:45;3.50;;;3.30;;
14021;SDS011;7086;48.116;11.580;2022-08-19T21:07:27;3.88;;;3.58;;
14021;SDS011;7086;48.116;11.580;2022-08-19T21:12:41;4.18;;;3.95;;
14021;SDS011;7086;48.116;11.580;2022-08-19T21:15:23;4.38;;;3.72;;
14021;SDS011;7086;48.116;11.580;2022-08-19T21:17:51;4.18;;;3.83;;
14021;SDS011;7086;48.116;11.580;2022-08-19T21:20:24;4.22;;;4.03;;
14021;SDS011;7086;48.116;11.580;2022-08-19T21:22:51;5.22;;;4.72;;
14021;SDS011;7086;48.116;11.580;2022-08-19T21:25:20;3.88;;;3.60;;
14021;SDS011;7086;48.116;11.580;2022-08-19T21:27:49;4.15;;;3.85;;
14021;SDS011;7086;48.116;11.580;2022-08-19T21:30:17;4.20;;;4.00;;
14021;SDS011;7086;48.116;11.580;2022-08-19T21:32:45;3.72;;;3.53;;
14021;SDS011;7086;48.116;11.580;2022-08-19T21:35:13;4.25;;;3.95;;
14021;SDS011;7086;48.116;11.580;2022-08-19T21:37:41;3.67;;;3.40;;
14021;SDS011;7086;48.116;11.580;2022-08-19T21:40:09;4.57;;;4.28;;
14021;SDS011;7086;48.116;11.580;2022-08-19T21:42:37;4.10;;;3.90;;
14021;SDS011;7086;48.116;11.580;2022-08-19T21:45:18;4.43;;;4.20;;
14021;SDS011;7086;48.116;11.580;2022-08-19T21:47:47;4.00;;;3.80;;
14021;SDS011;7086;48.116;11.580;2022-08-19T21:50:15;3.75;;;3.55;;
14021;SDS011;7086;48.116;11.580;2022-08-19T21:52:45;3.70;;;3.50;;
14021;SDS011;7086;48.116;11.580;2022-08-19T21:55:13;4.88;;;3.90;;
14021;SDS011;7086;48.116;11.580;2022-08-19T21:57:42;3.78;;;3.58;;
14021;SDS011;7086;48.116;11.580;2022-08-19T22:00:13;4.25;;;3.95;;
14021;SDS011;7086;48.116;11.580;2022-08-19T22:02:45;4.70;;;4.30;;
14021;SDS011;7086;48.116;11.580;2022-08-19T22:05:14;4.90;;;4.50;;
14021;SDS011;7086;48.116;11.580;2022-08-19T22:07:47;4.63;;;4.32;;
14021;SDS011;7086;48.116;11.580;2022-08-19T22:10:18;4.25;;;4.05;;
14021;SDS011;7086;48.116;11.580;2022-08-19T22:12:48;4.32;;;4.13;;
14021;SDS011;7086;48.116;11.580;2022-08-19T22:15:19;5.15;;;4.85;;
14021;SDS011;7086;48.116;11.580;2022-08-19T22:17:47;4.82;;;4.63;;
14021;SDS011;7086;48.116;11.580;2022-08-19T22:20:15;5.57;;;5.28;;
14021;SDS011;7086;48.116;11.580;2022-08-19T22:22:45;5.45;;;5.10;;
14021;SDS011;7086;48.116;11.580;2022-08-19T22:25:22;5.65;;;5.35;;
14021;SDS011;7086;48.116;11.580;2022-08-19T22:27:53;5.38;;;5.07;;
14021;SDS011;7086;48.116;11.580;2022-08-19T22:30:27;5.25;;;4.95;;
14021;SDS011;7086;48.116;11.580;2022-08-19T22:32:56;5.50;;;5.20;;
14021;SDS011;7086;48.116;11.580;2022-08-19T22:35:26;10.80;;;5.85;;
14021;SDS011;7086;48.116;11.580;2022-08-19T22:37:55;5.70;;;5.32;;
14021;SDS011;7086;48.116;11.580;2022-08-19T22:40:24;5.20;;;4.93;;
14021;SDS011;7086;48.116;11.580;2022-08-19T22:42:58;5.47;;;4.97;;
14021;SDS011;7086;48.116;11.580;2022-08-19T22:45:35;5.10;;;4.80;;
14021;SDS011;7086;48.116;11.580;2022-08-19T22:48:10;4.90;;;4.60;;
14021;SDS011;7086;48.116;11.580;2022-08-19T22:50:44;5.13;;;4.82;;
14021;SDS011;7086;48.116;11.580;2022-08-19T22:53:27;4.88;;;4.57;;
14021;SDS011;7086;48.116;11.580;2022-08-19T22:55:56;4.50;;;4.30;;
14021;SDS011;7086;48.116;11.580;2022-08-19T22:58:24;4.90;;;4.60;;
14021;SDS011;7086;48.116;11.580;2022-08-19T23:00:55;5.22;;;4.70;;
14021;SDS011;7086;48.116;11.580;2022-08-19T23:03:24;5.35;;;5.05;;
14021;SDS011;7086;48.116;11.580;2022-08-19T23:05:52;4.88;;;4.55;;
14021;SDS011;7086;48.116;11.580;2022-08-19T23:08:23;4.70;;;4.40;;
14021;SDS011;7086;48.116;11.580;2022-08-19T23:10:51;4.35;;;4.15;;
14021;SDS011;7086;48.116;11.580;2022-08-19T23:13:20;4.28;;;4.07;;
14021;SDS011;7086;48.116;11.580;2022-08-19T23:15:48;3.85;;;3.65;;
14021;SDS011;7086;48.116;11.580;2022-08-19T23:18:18;4.38;;;4.18;;
14021;SDS011;7086;48.116;11.580;2022-08-19T23:20:46;4.47;;;4.25;;
14021;SDS011;7086;48.116;11.580;2022-08-19T23:23:15;4.22;;;4.03;;
14021;SDS011;7086;48.116;11.580;2022-08-19T23:25:48;4.30;;;4.10;;
14021;SDS011;7086;48.116;11.580;2022-08-19T23:28:17;4.13;;;3.92;;
14021;SDS011;7086;48.116;11.580;2022-08-19T23:31:03;4.55;;;4.28;;
14021;SDS011;7086;48.116;11.580;2022-08-19T23:33:34;4.00;;;3.80;;
14021;SDS011;7086;48.116;11.580;2022-08-19T23:36:05;5.55;;;5.25;;
14021;SDS011;7086;48.116;11.580;2022-08-19T23:38:36;5.18;;;4.88;;
14021;SDS011;7086;48.116;11.580;2022-08-19T23:41:07;4.85;;;4.55;;
14021;SDS011;7086;48.116;11.580;2022-08-19T23:43:38;5.15;;;4.85;;
14021;SDS011;7086;48.116;11.580;2022-08-19T23:46:07;5.45;;;5.05;;
14021;SDS011;7086;48.116;11.580;2022-08-19T23:48:39;5.43;;;5.03;;
14021;SDS011;7086;48.116;11.580;2022-08-19T23:51:07;5.60;;;5.30;;
14021;SDS011;7086;48.116;11.580;2022-08-19T23:53:37;6.60;;;6.10;;
14021;SDS011;7086;48.116;11.580;2022-08-19T23:56:08;5.50;;;5.13;;
14021;SDS011;7086;48.116;11.580;2022-08-19T23:58:37;6.05;;;5.65;;
